createdAt,value
2018-11-27T00:02:20.749Z,99732.09
2018-11-27T00:04:52.854Z,99744.23
2018-11-27T00:07:24.667Z,99753.02
2018-11-27T00:09:56.460Z,99755.89
2018-11-27T00:12:28.267Z,99754.80
2018-11-27T00:14:59.750Z,99755.06
2018-11-27T00:17:31.799Z,99751.43
2018-11-27T00:20:04.129Z,99751.16
2018-11-27T00:22:35.758Z,99759.69
2018-11-27T00:25:09.815Z,99760.87
2018-11-27T00:27:41.688Z,99766.50
2018-11-27T00:30:16.358Z,99782.19
2018-11-27T00:32:48.442Z,99779.92
2018-11-27T00:35:21.053Z,99784.30
2018-11-27T00:37:53.618Z,99786.91
2018-11-27T00:40:25.310Z,99791.22
2018-11-27T00:42:57.950Z,99796.91
2018-11-27T00:45:29.549Z,99808.17
2018-11-27T00:48:01.849Z,99812.88
2018-11-27T00:50:34.679Z,99814.02
2018-11-27T00:53:06.450Z,99814.69
2018-11-27T00:55:38.316Z,99802.86
2018-11-27T00:58:09.911Z,99794.08
2018-11-27T01:00:42.331Z,99798.03
2018-11-27T01:03:13.827Z,99787.60
2018-11-27T01:05:46.198Z,99795.89
2018-11-27T01:08:18.079Z,99807.53
2018-11-27T01:10:50.024Z,99811.73
2018-11-27T01:13:21.956Z,99817.94
2018-11-27T01:15:54.190Z,99818.73
2018-11-27T01:18:25.990Z,99838.79
2018-11-27T01:20:58.274Z,99838.21
2018-11-27T01:23:29.923Z,99840.55
2018-11-27T01:26:01.702Z,99848.45
2018-11-27T01:28:33.819Z,99852.25
2018-11-27T01:31:05.850Z,99857.73
2018-11-27T01:33:38.165Z,99857.36
2018-11-27T01:36:09.818Z,99865.84
2018-11-27T01:38:41.818Z,99875.91
2018-11-27T01:41:14.857Z,99877.86
2018-11-27T01:43:46.554Z,99882.81
2018-11-27T01:46:18.138Z,99876.25
2018-11-27T01:48:50.494Z,99877.44
2018-11-27T01:51:22.669Z,99876.52
2018-11-27T01:53:54.282Z,99883.61
2018-11-27T01:56:28.332Z,99889.29
2018-11-27T01:59:00.873Z,99889.30
2018-11-27T02:01:32.421Z,99893.08
2018-11-27T02:04:05.043Z,99891.84
2018-11-27T02:06:40.446Z,99896.30
2018-11-27T02:09:15.621Z,99899.84
2018-11-27T02:11:47.245Z,99910.33
2018-11-27T02:14:19.805Z,99910.27
2018-11-27T02:16:52.469Z,99910.33
2018-11-27T02:19:26.055Z,99917.45
2018-11-27T02:21:59.137Z,99924.36
2018-11-27T02:24:30.800Z,99933.92
2018-11-27T02:27:03.830Z,99946.20
2018-11-27T02:29:35.443Z,99944.89
2018-11-27T02:32:07.094Z,99943.44
2018-11-27T02:34:38.690Z,99945.33
2018-11-27T02:37:10.281Z,99941.00
2018-11-27T02:39:45.540Z,99937.28
2018-11-27T02:42:17.043Z,99932.31
2018-11-27T02:44:48.568Z,99935.80
2018-11-27T02:47:19.859Z,99943.98
2018-11-27T02:49:52.830Z,99958.88
2018-11-27T02:52:24.719Z,99971.77
2018-11-27T02:54:56.367Z,99972.55
2018-11-27T02:57:32.778Z,99982.80
2018-11-27T03:00:05.629Z,99992.29
2018-11-27T03:02:41.449Z,100010.02
2018-11-27T03:05:29.609Z,100005.42
2018-11-27T03:08:02.244Z,100018.92
2018-11-27T03:10:34.025Z,100017.37
2018-11-27T03:13:05.575Z,100025.56
2018-11-27T03:15:37.295Z,100023.41
2018-11-27T03:18:09.304Z,100022.84
2018-11-27T03:20:40.977Z,100016.20
2018-11-27T03:23:13.506Z,100028.55
2018-11-27T03:25:44.925Z,100029.65
2018-11-27T03:28:16.496Z,100022.69
2018-11-27T03:30:50.134Z,100022.30
2018-11-27T03:33:21.732Z,100010.50
2018-11-27T03:35:53.401Z,100015.03
2018-11-27T03:38:26.239Z,100022.70
2018-11-27T03:40:58.031Z,100029.86
2018-11-27T03:43:29.617Z,100031.81
2018-11-27T03:46:01.225Z,100038.91
2018-11-27T03:48:32.610Z,100042.52
2018-11-27T03:51:04.431Z,100037.59
2018-11-27T03:53:36.754Z,100036.50
2018-11-27T03:56:09.205Z,100042.35
2018-11-27T03:58:40.809Z,100060.05
2018-11-27T04:01:12.353Z,100058.42
2018-11-27T04:03:43.926Z,100068.38
2018-11-27T04:06:15.425Z,100064.77
2018-11-27T04:08:47.700Z,100063.52
2018-11-27T04:11:19.406Z,100068.14
2018-11-27T04:13:51.883Z,100074.38
2018-11-27T04:16:23.422Z,100077.33
2018-11-27T04:18:54.996Z,100074.09
2018-11-27T04:21:26.558Z,100076.86
2018-11-27T04:23:58.452Z,100075.02
2018-11-27T04:26:30.192Z,100080.20
2018-11-27T04:29:01.821Z,100076.72
2018-11-27T04:31:33.370Z,100069.77
2018-11-27T04:34:05.449Z,100060.67
2018-11-27T04:36:36.741Z,100059.81
2018-11-27T04:39:10.746Z,100055.95
2018-11-27T04:41:43.361Z,100051.84
2018-11-27T04:44:15.492Z,100059.27
2018-11-27T04:46:47.990Z,100054.58
2018-11-27T04:49:20.240Z,100049.77
2018-11-27T04:51:52.132Z,100047.98
2018-11-27T04:54:24.487Z,100051.32
2018-11-27T04:56:56.125Z,100045.61
2018-11-27T04:59:28.130Z,100054.45
2018-11-27T05:02:00.965Z,100056.69
2018-11-27T05:04:34.013Z,100052.70
2018-11-27T05:07:06.814Z,100056.41
2018-11-27T05:09:38.823Z,100050.17
2018-11-27T05:12:10.764Z,100062.86
2018-11-27T05:14:42.363Z,100061.78
2018-11-27T05:17:14.885Z,100061.33
2018-11-27T05:19:48.171Z,100061.11
2018-11-27T05:22:21.086Z,100056.86
2018-11-27T05:24:53.505Z,100053.66
2018-11-27T05:27:25.685Z,100055.08
2018-11-27T05:29:57.220Z,100052.47
2018-11-27T05:32:28.894Z,100044.73
2018-11-27T05:35:01.296Z,100047.39
2018-11-27T05:37:32.690Z,100049.53
2018-11-27T05:40:04.158Z,100044.04
2018-11-27T05:42:36.851Z,100051.46
2018-11-27T05:45:11.659Z,100043.97
2018-11-27T05:47:43.605Z,100042.49
2018-11-27T05:50:16.029Z,100045.23
2018-11-27T05:52:47.810Z,100046.87
2018-11-27T05:55:19.823Z,100047.84
2018-11-27T05:57:53.334Z,100040.48
2018-11-27T06:00:26.206Z,100022.23
2018-11-27T06:03:03.809Z,100015.47
2018-11-27T06:05:35.399Z,100011.88
2018-11-27T06:08:08.138Z,100015.47
2018-11-27T06:10:39.659Z,100009.17
2018-11-27T06:13:11.160Z,100004.22
2018-11-27T06:15:42.529Z,100005.77
2018-11-27T06:18:14.850Z,99996.45
2018-11-27T06:20:47.339Z,99998.50
2018-11-27T06:23:19.012Z,99983.56
2018-11-27T06:25:52.027Z,99975.02
2018-11-27T06:28:23.754Z,99977.39
2018-11-27T06:30:57.094Z,99979.23
2018-11-27T06:33:28.732Z,99978.00
2018-11-27T06:36:00.724Z,99978.07
2018-11-27T06:38:35.045Z,99968.95
2018-11-27T06:41:07.816Z,99970.91
2018-11-27T06:43:39.898Z,99959.19
2018-11-27T06:46:12.333Z,99956.94
2018-11-27T06:48:43.815Z,99942.95
2018-11-27T06:51:16.693Z,99951.22
2018-11-27T06:53:50.378Z,99942.05
2018-11-27T06:56:23.249Z,99930.19
2018-11-27T06:58:55.550Z,99927.73
2018-11-27T07:01:27.942Z,99922.30
2018-11-27T07:03:59.622Z,99913.47
2018-11-27T07:06:31.353Z,99903.14
2018-11-27T07:09:04.155Z,99900.67
2018-11-27T07:11:36.812Z,99902.55
2018-11-27T07:14:10.013Z,99895.13
2018-11-27T07:16:41.638Z,99893.16
2018-11-27T07:19:15.945Z,99888.65
2018-11-27T07:21:48.957Z,99882.80
2018-11-27T07:24:21.370Z,99876.20
2018-11-27T07:26:53.464Z,99872.25
2018-11-27T07:29:25.023Z,99870.76
2018-11-27T07:31:58.148Z,99869.73
2018-11-27T07:34:30.155Z,99860.68
2018-11-27T07:37:03.594Z,99856.67
2018-11-27T07:39:35.328Z,99854.13
2018-11-27T07:42:08.061Z,99845.30
2018-11-27T07:44:40.750Z,99840.59
2018-11-27T07:47:12.445Z,99835.88
2018-11-27T07:49:44.568Z,99840.00
2018-11-27T07:52:16.517Z,99836.65
2018-11-27T07:54:49.828Z,99834.11
2018-11-27T07:57:22.035Z,99832.04
2018-11-27T07:59:54.644Z,99831.44
2018-11-27T08:02:26.100Z,99824.54
2018-11-27T08:04:57.845Z,99822.47
2018-11-27T08:07:29.624Z,99820.49
2018-11-27T08:10:01.003Z,99819.20
2018-11-27T08:12:32.809Z,99821.53
2018-11-27T08:15:05.283Z,99823.44
2018-11-27T08:17:37.060Z,99821.18
2018-11-27T08:20:10.458Z,99822.41
2018-11-27T08:22:43.334Z,99820.70
2018-11-27T08:25:17.912Z,99822.81
2018-11-27T08:27:50.915Z,99813.17
2018-11-27T08:30:27.193Z,99807.91
2018-11-27T08:33:02.919Z,99811.70
2018-11-27T08:35:36.015Z,99806.30
2018-11-27T08:38:07.826Z,99800.19
2018-11-27T08:40:40.737Z,99795.36
2018-11-27T08:43:13.483Z,99792.09
2018-11-27T08:45:45.106Z,99793.25
2018-11-27T08:48:17.920Z,99788.73
2018-11-27T08:50:51.672Z,99782.89
2018-11-27T08:53:23.411Z,99793.45
2018-11-27T08:55:55.782Z,99786.66
2018-11-27T08:58:31.272Z,99789.67
2018-11-27T09:01:02.827Z,99786.92
2018-11-27T09:03:34.611Z,99780.77
2018-11-27T09:06:07.376Z,99784.40
2018-11-27T09:08:44.052Z,99776.60
2018-11-27T09:11:20.800Z,99775.76
2018-11-27T09:13:54.330Z,99763.33
2018-11-27T09:16:32.382Z,99754.15
2018-11-27T09:19:09.197Z,99753.62
2018-11-27T09:21:47.304Z,99755.73
2018-11-27T09:24:21.973Z,99759.26
2018-11-27T09:26:53.562Z,99763.93
2018-11-27T09:29:25.820Z,99763.69
2018-11-27T09:32:05.360Z,99765.98
2018-11-27T09:34:39.395Z,99767.55
2018-11-27T09:37:11.000Z,99769.11
2018-11-27T09:39:44.885Z,99760.63
2018-11-27T09:42:19.724Z,99770.80
2018-11-27T09:44:55.497Z,99770.66
2018-11-27T09:47:28.231Z,99768.02
2018-11-27T09:50:00.183Z,99760.73
2018-11-27T09:52:32.647Z,99758.19
2018-11-27T09:55:06.048Z,99758.94
2018-11-27T09:57:39.221Z,99761.95
2018-11-27T10:00:46.466Z,99763.69
2018-11-27T10:03:18.787Z,99760.95
2018-11-27T10:05:50.506Z,99769.20
2018-11-27T10:08:23.055Z,99765.72
2018-11-27T10:10:55.045Z,99767.41
2018-11-27T10:13:28.728Z,99768.16
2018-11-27T10:16:00.697Z,99769.15
2018-11-27T10:18:32.599Z,99778.84
2018-11-27T10:21:06.390Z,99772.58
2018-11-27T10:23:39.836Z,99772.20
2018-11-27T10:26:12.923Z,99772.02
2018-11-27T10:28:45.754Z,99774.17
2018-11-27T10:31:21.876Z,99766.73
2018-11-27T10:33:54.910Z,99772.58
2018-11-27T10:36:27.700Z,99768.72
2018-11-27T10:39:04.563Z,99775.69
2018-11-27T10:41:37.883Z,99779.73
2018-11-27T10:44:10.269Z,99781.98
2018-11-27T10:46:42.816Z,99785.79
2018-11-27T10:49:16.588Z,99790.41
2018-11-27T10:51:48.601Z,99796.33
2018-11-27T10:54:21.575Z,99790.88
2018-11-27T10:59:40.638Z,99795.67
2018-11-27T11:02:18.289Z,99793.25
2018-11-27T11:04:51.141Z,99802.66
2018-11-27T11:07:24.919Z,99804.83
2018-11-27T11:09:56.631Z,99813.42
2018-11-27T11:12:28.429Z,99817.47
2018-11-27T11:15:01.925Z,99825.75
2018-11-27T11:17:34.626Z,99834.77
2018-11-27T11:20:12.457Z,99834.80
2018-11-27T11:22:44.779Z,99838.84
2018-11-27T11:25:19.746Z,99828.47
2018-11-27T11:27:58.486Z,99825.37
2018-11-27T11:33:40.082Z,99823.13
2018-11-27T11:36:16.832Z,99823.39
2018-11-27T11:45:43.628Z,99839.86
2018-11-27T11:51:43.687Z,99845.51
2018-11-27T11:54:37.235Z,99846.45
2018-11-27T11:57:34.405Z,99835.84
2018-11-27T12:00:27.817Z,99832.16
2018-11-27T12:03:20.522Z,99835.59
2018-11-27T12:06:07.018Z,99838.31
2018-11-27T12:08:47.168Z,99845.92
2018-11-27T12:11:44.941Z,99843.67
2018-11-27T12:14:19.355Z,99841.25
2018-11-27T12:17:09.944Z,99847.63
2018-11-27T12:19:54.217Z,99847.08
2018-11-27T12:22:34.009Z,99852.27
2018-11-27T12:25:23.969Z,99846.16
2018-11-27T12:27:54.653Z,99855.55
2018-11-27T12:30:28.243Z,99858.94
2018-11-27T12:32:59.948Z,99866.16
2018-11-27T12:35:31.970Z,99872.39
2018-11-27T12:38:04.082Z,99874.91
2018-11-27T12:40:36.696Z,99879.83
2018-11-27T12:43:08.406Z,99874.06
2018-11-27T12:45:40.067Z,99879.91
2018-11-27T12:48:11.667Z,99886.20
2018-11-27T12:50:45.635Z,99890.88
2018-11-27T12:53:18.752Z,99894.66
2018-11-27T12:55:53.354Z,99893.55
2018-11-27T12:58:25.105Z,99891.77
2018-11-27T13:00:56.670Z,99893.81
2018-11-27T13:03:28.304Z,99891.94
2018-11-27T13:05:59.832Z,99894.63
2018-11-27T13:08:31.746Z,99904.04
2018-11-27T13:11:03.283Z,99908.07
2018-11-27T13:13:35.814Z,99916.05
2018-11-27T13:16:07.363Z,99916.64
2018-11-27T13:18:40.773Z,99919.62
2018-11-27T13:21:17.125Z,99925.65
2018-11-27T13:23:48.600Z,99920.59
2018-11-27T13:26:20.359Z,99920.01
2018-11-27T13:28:51.906Z,99922.64
2018-11-27T13:31:27.616Z,99935.25
2018-11-27T13:34:05.464Z,99935.33
2018-11-27T13:36:37.290Z,99934.78
2018-11-27T13:39:18.851Z,99943.01
2018-11-27T13:41:50.729Z,99936.98
2018-11-27T13:44:22.454Z,99940.47
2018-11-27T13:46:53.987Z,99937.63
2018-11-27T13:49:25.474Z,99940.52
2018-11-27T13:51:57.064Z,99951.05
2018-11-27T13:54:29.451Z,99952.36
2018-11-27T13:57:01.050Z,99967.22
2018-11-27T13:59:33.012Z,99964.95
2018-11-27T14:02:04.941Z,99971.37
2018-11-27T14:04:36.614Z,99975.19
2018-11-27T14:07:08.467Z,99977.58
2018-11-27T14:09:41.773Z,99982.05
2018-11-27T14:12:13.658Z,99989.38
2018-11-27T14:14:45.609Z,99981.67
2018-11-27T14:17:17.545Z,99992.34
2018-11-27T14:19:50.137Z,99996.52
2018-11-27T14:22:25.081Z,99994.06
2018-11-27T14:24:54.229Z,99995.20
2018-11-27T14:27:25.957Z,99990.78
2018-11-27T14:29:57.688Z,99995.20
2018-11-27T14:32:29.568Z,99999.49
2018-11-27T14:35:01.348Z,99997.83
2018-11-27T14:37:33.207Z,99993.09
2018-11-27T14:40:06.556Z,99990.31
2018-11-27T14:42:38.883Z,99991.40
2018-11-27T14:45:15.286Z,99991.13
2018-11-27T14:47:47.994Z,99992.41
2018-11-27T14:50:19.748Z,99998.77
2018-11-27T14:52:51.488Z,99999.69
2018-11-27T14:55:25.235Z,99997.14
2018-11-27T14:57:57.241Z,100002.55
2018-11-27T15:00:29.223Z,100008.00
2018-11-27T15:03:01.014Z,100017.39
2018-11-27T15:05:34.066Z,100024.90
2018-11-27T15:08:06.751Z,100026.33
2018-11-27T15:10:38.855Z,100023.63
2018-11-27T15:13:11.475Z,100024.44
2018-11-27T15:15:46.138Z,100019.80
2018-11-27T15:18:18.775Z,100011.02
2018-11-27T15:20:51.244Z,100004.00
2018-11-27T15:23:22.946Z,100005.66
2018-11-27T15:25:54.738Z,100019.10
2018-11-27T15:28:26.459Z,100025.70
2018-11-27T15:30:58.472Z,100026.61
2018-11-27T15:33:30.401Z,100019.69
2018-11-27T15:36:02.008Z,100016.81
2018-11-27T15:38:33.882Z,100005.68
2018-11-27T15:41:05.979Z,100000.50
2018-11-27T15:43:37.639Z,100006.16
2018-11-27T15:46:09.139Z,100003.53
2018-11-27T15:48:40.813Z,100004.18
2018-11-27T15:51:12.291Z,100009.20
2018-11-27T15:53:45.210Z,100011.44
2018-11-27T15:56:16.888Z,100015.33
2018-11-27T15:58:48.444Z,100019.49
2018-11-27T16:01:20.976Z,100013.00
2018-11-27T16:03:52.525Z,100010.76
2018-11-27T16:06:24.048Z,100010.56
2018-11-27T16:08:56.041Z,100008.55
2018-11-27T16:11:27.897Z,99999.73
2018-11-27T16:14:00.636Z,100003.60
2018-11-27T16:16:32.408Z,100009.00
2018-11-27T16:19:05.154Z,100005.17
2018-11-27T16:21:37.034Z,100003.34
2018-11-27T16:24:08.960Z,100007.88
2018-11-27T16:26:40.964Z,100016.22
2018-11-27T16:29:12.965Z,100014.91
2018-11-27T16:31:44.995Z,100021.27
2018-11-27T16:34:17.003Z,100035.39
2018-11-27T16:36:48.770Z,100039.09
2018-11-27T16:39:20.557Z,100044.12
2018-11-27T16:41:53.279Z,100046.99
2018-11-27T16:44:25.315Z,100050.01
2018-11-27T16:46:57.418Z,100049.69
2018-11-27T16:49:29.598Z,100056.72
2018-11-27T16:52:01.191Z,100056.25
2018-11-27T16:54:33.037Z,100051.32
2018-11-27T16:57:05.266Z,100036.11
2018-11-27T16:59:37.001Z,100027.09
2018-11-27T17:02:08.896Z,100021.91
2018-11-27T17:04:41.079Z,100015.74
2018-11-27T17:07:12.718Z,100012.27
2018-11-27T17:09:44.291Z,100007.41
2018-11-27T17:12:16.698Z,100006.09
2018-11-27T17:14:48.269Z,100000.67
2018-11-27T17:17:20.011Z,99998.83
2018-11-27T17:19:51.603Z,100000.85
2018-11-27T17:22:23.318Z,100004.78
2018-11-27T17:24:54.676Z,100011.81
2018-11-27T17:27:27.328Z,100008.66
2018-11-27T17:29:59.358Z,100005.03
2018-11-27T17:32:31.428Z,99994.53
2018-11-27T17:35:03.457Z,99981.62
2018-11-27T17:37:35.480Z,99982.93
2018-11-27T17:40:09.005Z,99969.25
2018-11-27T17:42:41.470Z,99977.75
2018-11-27T17:45:16.679Z,99973.50
2018-11-27T17:47:48.877Z,99980.98
2018-11-27T17:50:20.891Z,99979.93
2018-11-27T17:52:52.848Z,99981.84
2018-11-27T17:55:24.799Z,99987.41
2018-11-27T17:57:56.943Z,99989.29
2018-11-27T18:00:30.721Z,99996.67
2018-11-27T18:03:04.688Z,99993.52
2018-11-27T18:05:36.382Z,99986.41
2018-11-27T18:08:09.019Z,99978.02
2018-11-27T18:10:40.936Z,99970.36
2018-11-27T18:13:13.431Z,99972.91
2018-11-27T18:15:45.394Z,99971.73
2018-11-27T18:18:17.206Z,99980.11
2018-11-27T18:20:49.567Z,99980.78
2018-11-27T18:23:21.799Z,99980.11
2018-11-27T18:25:53.976Z,99982.80
2018-11-27T18:28:25.911Z,99981.88
2018-11-27T18:30:57.656Z,99983.33
2018-11-27T18:33:29.307Z,99984.04
2018-11-27T18:36:01.168Z,99978.11
2018-11-27T18:38:32.984Z,99975.78
2018-11-27T18:41:05.113Z,99984.25
2018-11-27T18:43:37.067Z,99984.10
2018-11-27T18:46:10.798Z,99974.32
2018-11-27T18:48:43.092Z,99949.89
2018-11-27T18:51:15.660Z,99924.47
2018-11-27T18:53:47.330Z,99919.45
2018-11-27T18:56:19.120Z,99919.73
2018-11-27T18:58:51.006Z,99918.34
2018-11-27T19:01:23.087Z,99913.20
2018-11-27T19:03:54.945Z,99910.66
2018-11-27T19:06:27.099Z,99926.84
2018-11-27T19:08:59.777Z,99925.45
2018-11-27T19:11:31.662Z,99924.83
2018-11-27T19:14:04.433Z,99927.44
2018-11-27T19:16:36.575Z,99947.20
2018-11-27T19:19:08.469Z,99936.55
2018-11-27T19:21:40.492Z,99928.92
2018-11-27T19:24:12.735Z,99928.94
2018-11-27T19:26:44.687Z,99935.48
2018-11-27T19:29:16.298Z,99928.30
2018-11-27T19:31:47.960Z,99930.45
2018-11-27T19:34:19.733Z,99925.23
2018-11-27T19:36:51.450Z,99920.44
2018-11-27T19:39:23.603Z,99914.94
2018-11-27T19:41:55.493Z,99908.08
2018-11-27T19:44:28.369Z,99906.07
2018-11-27T19:47:00.253Z,99898.83
2018-11-27T19:49:37.985Z,99886.97
2018-11-27T19:52:13.571Z,99888.04
2018-11-27T19:54:45.527Z,99886.37
2018-11-27T19:57:17.291Z,99898.45
2018-11-27T19:59:49.399Z,99896.29
2018-11-27T20:02:21.363Z,99891.51
2018-11-27T20:04:53.325Z,99884.89
2018-11-27T20:07:25.211Z,99880.88
2018-11-27T20:09:57.550Z,99880.00
2018-11-27T20:12:29.490Z,99888.47
2018-11-27T20:15:02.416Z,99882.00
2018-11-27T20:17:36.054Z,99882.86
2018-11-27T20:20:09.480Z,99883.02
2018-11-27T20:22:42.958Z,99878.09
2018-11-27T20:25:17.639Z,99876.51
2018-11-27T20:27:49.611Z,99868.33
2018-11-27T20:30:24.459Z,99866.36
2018-11-27T20:32:58.851Z,99867.47
2018-11-27T20:35:31.240Z,99871.15
2018-11-27T20:38:05.980Z,99873.63
2018-11-27T20:40:37.902Z,99869.89
2018-11-27T20:43:09.840Z,99863.45
2018-11-27T20:45:42.161Z,99852.68
2018-11-27T20:48:18.171Z,99848.34
2018-11-27T20:50:52.587Z,99858.44
2018-11-27T20:53:24.566Z,99856.91
2018-11-27T20:55:56.804Z,99857.52
2018-11-27T20:58:28.950Z,99857.70
2018-11-27T21:01:01.182Z,99857.11
2018-11-27T21:03:33.591Z,99848.88
2018-11-27T21:06:06.017Z,99850.66
2018-11-27T21:08:38.142Z,99851.21
2018-11-27T21:11:10.711Z,99861.89
2018-11-27T21:13:43.005Z,99863.03
2018-11-27T21:16:15.251Z,99865.52
2018-11-27T21:18:47.437Z,99867.29
2018-11-27T21:21:19.573Z,99869.13
2018-11-27T21:23:51.902Z,99873.77
2018-11-27T21:26:23.802Z,99875.87
2018-11-27T21:28:55.839Z,99877.16
2018-11-27T21:31:27.725Z,99877.92
2018-11-27T21:33:59.902Z,99881.50
2018-11-27T21:36:31.904Z,99880.41
2018-11-27T21:39:04.853Z,99868.11
2018-11-27T21:41:36.962Z,99867.09
2018-11-27T21:44:09.367Z,99862.02
2018-11-27T21:46:41.849Z,99860.98
2018-11-27T21:49:14.142Z,99856.84
2018-11-27T21:51:46.283Z,99847.16
2018-11-27T21:54:18.235Z,99847.39
2018-11-27T21:56:50.765Z,99851.77
2018-11-27T21:59:22.815Z,99850.63
2018-11-27T22:01:54.761Z,99840.09
2018-11-27T22:04:27.077Z,99841.96
2018-11-27T22:06:59.239Z,99840.03
2018-11-27T22:09:31.479Z,99830.25
2018-11-27T22:12:04.551Z,99838.45
2018-11-27T22:14:37.081Z,99825.86
2018-11-27T22:17:09.843Z,99822.85
2018-11-27T22:19:42.612Z,99826.69
2018-11-27T22:22:14.365Z,99823.45
2018-11-27T22:24:46.331Z,99821.61
2018-11-27T22:27:18.191Z,99823.15
2018-11-27T22:29:50.494Z,99837.05
2018-11-27T22:32:22.511Z,99837.88
2018-11-27T22:34:54.945Z,99829.86
2018-11-27T22:37:28.110Z,99829.76
2018-11-27T22:40:00.342Z,99828.73
2018-11-27T22:42:32.574Z,99831.66
2018-11-27T22:45:04.960Z,99825.17
2018-11-27T22:47:37.656Z,99829.55
2018-11-27T22:50:12.955Z,99830.57
2018-11-27T22:52:44.492Z,99838.59
2018-11-27T22:55:16.458Z,99841.08
2018-11-27T22:57:48.505Z,99845.39
2018-11-27T23:00:29.490Z,99854.91
2018-11-27T23:03:01.670Z,99869.64
2018-11-27T23:05:33.875Z,99865.69
2018-11-27T23:08:05.887Z,99875.18
2018-11-27T23:10:39.390Z,99872.06
2018-11-27T23:13:11.256Z,99873.11
2018-11-27T23:15:43.204Z,99871.56
2018-11-27T23:18:15.473Z,99866.69
2018-11-27T23:20:47.548Z,99860.20
2018-11-27T23:23:19.314Z,99864.64
2018-11-27T23:25:51.236Z,99874.19
2018-11-27T23:28:23.236Z,99881.72
2018-11-27T23:30:55.086Z,99887.64
2018-11-27T23:33:26.933Z,99882.69
2018-11-27T23:35:59.130Z,99879.16
2018-11-27T23:38:31.411Z,99885.75
2018-11-27T23:41:03.283Z,99887.30
2018-11-27T23:43:35.331Z,99892.75
2018-11-27T23:46:07.263Z,99896.44
2018-11-27T23:48:39.639Z,99896.28
2018-11-27T23:51:11.562Z,99899.97
2018-11-27T23:53:43.456Z,99896.34
2018-11-27T23:56:15.341Z,99896.73
2018-11-27T23:58:47.631Z,99897.98
